createdAt,value
2023-02-08T00:00:11.480Z,102764.06
2023-02-08T00:04:15.920Z,102762.44
2023-02-08T00:08:20.784Z,102758.69
2023-02-08T00:12:25.178Z,102763.56
2023-02-08T00:16:28.644Z,102757.59
2023-02-08T00:20:33.443Z,102753.59
2023-02-08T00:24:38.462Z,102754.44
2023-02-08T00:28:43.438Z,102753.41
2023-02-08T00:32:47.944Z,102757.97
2023-02-08T00:36:52.657Z,102751.75
2023-02-08T00:40:59.190Z,102748.09
2023-02-08T00:45:03.848Z,102754.22
2023-02-08T00:49:09.230Z,102744.09
2023-02-08T00:53:14.193Z,102739.25
2023-02-08T00:57:19.581Z,102742.81
2023-02-08T01:01:24.523Z,102739.53
2023-02-08T01:05:30.539Z,102729.50
2023-02-08T01:09:35.396Z,102724.53
2023-02-08T01:13:43.743Z,102725.56
2023-02-08T01:17:48.751Z,102723.16
2023-02-08T01:21:53.355Z,102726.63
2023-02-08T01:25:58.225Z,102729.31
2023-02-08T01:30:03.068Z,102732.69
2023-02-08T01:34:09.373Z,102728.00
2023-02-08T01:38:13.471Z,102733.19
2023-02-08T01:42:19.612Z,102728.34
2023-02-08T01:46:25.900Z,102723.50
2023-02-08T01:50:36.723Z,102723.84
2023-02-08T01:54:48.398Z,102720.09
2023-02-08T01:58:56.417Z,102721.25
2023-02-08T02:03:05.620Z,102713.00
2023-02-08T02:07:10.901Z,102717.94
2023-02-08T02:11:15.940Z,102716.38
2023-02-08T02:15:20.261Z,102704.97
2023-02-08T02:19:35.473Z,102717.97
2023-02-08T02:24:15.639Z,102719.88
2023-02-08T02:28:48.781Z,102726.44
2023-02-08T02:33:08.521Z,102715.53
2023-02-08T02:37:31.692Z,102720.22
2023-02-08T02:42:04.146Z,102705.47
2023-02-08T02:46:17.646Z,102710.66
2023-02-08T02:50:31.030Z,102715.69
2023-02-08T02:54:40.926Z,102716.16
2023-02-08T02:58:46.911Z,102724.53
2023-02-08T03:02:50.707Z,102726.38
2023-02-08T03:07:06.852Z,102723.34
2023-02-08T03:11:20.439Z,102723.19
2023-02-08T03:15:31.294Z,102712.44
2023-02-08T03:19:41.114Z,102709.59
2023-02-08T03:23:52.804Z,102717.22
2023-02-08T03:28:06.442Z,102713.25
2023-02-08T03:32:13.123Z,102714.97
2023-02-08T03:36:23.794Z,102708.03
2023-02-08T03:40:34.854Z,102715.47
2023-02-08T03:44:42.423Z,102724.81
2023-02-08T03:48:51.338Z,102721.38
2023-02-08T03:52:57.184Z,102718.06
2023-02-08T03:57:09.554Z,102719.06
2023-02-08T04:01:19.153Z,102713.66
2023-02-08T04:05:24.456Z,102716.34
2023-02-08T04:09:27.534Z,102732.31
2023-02-08T04:13:32.557Z,102731.97
2023-02-08T04:17:36.929Z,102741.44
2023-02-08T04:21:41.540Z,102728.97
2023-02-08T04:25:45.032Z,102732.91
2023-02-08T04:29:50.300Z,102730.41
2023-02-08T04:33:54.579Z,102737.34
2023-02-08T04:37:58.924Z,102735.22
2023-02-08T04:42:04.051Z,102733.88
2023-02-08T04:46:10.863Z,102733.56
2023-02-08T04:50:15.704Z,102729.78
2023-02-08T04:54:20.650Z,102731.97
2023-02-08T04:58:25.508Z,102727.88
2023-02-08T05:02:31.708Z,102731.56
2023-02-08T05:06:36.391Z,102733.88
2023-02-08T05:10:45.997Z,102741.28
2023-02-08T05:14:49.147Z,102727.56
2023-02-08T05:18:56.448Z,102727.09
2023-02-08T05:23:00.564Z,102723.19
2023-02-08T05:27:04.999Z,102727.88
2023-02-08T05:31:13.695Z,102718.72
2023-02-08T05:35:20.259Z,102727.22
2023-02-08T05:39:25.072Z,102721.28
2023-02-08T05:43:29.725Z,102725.03
2023-02-08T05:47:34.634Z,102724.88
2023-02-08T05:51:40.723Z,102722.50
2023-02-08T05:55:46.729Z,102720.94
2023-02-08T05:59:51.569Z,102727.56
2023-02-08T06:03:56.512Z,102718.41
2023-02-08T06:08:03.093Z,102728.19
2023-02-08T06:12:07.275Z,102733.09
2023-02-08T06:16:11.761Z,102731.19
2023-02-08T06:20:16.642Z,102739.09
2023-02-08T06:24:23.039Z,102743.25
2023-02-08T06:28:27.243Z,102740.50
2023-02-08T06:32:30.382Z,102740.81
2023-02-08T06:36:34.052Z,102739.09
2023-02-08T06:40:38.527Z,102740.97
2023-02-08T06:44:51.396Z,102744.63
2023-02-08T06:48:59.186Z,102729.03
2023-02-08T06:53:02.393Z,102718.47
2023-02-08T06:57:08.457Z,102728.50
2023-02-08T07:01:14.216Z,102727.41
2023-02-08T07:05:17.463Z,102726.06
2023-02-08T07:09:20.479Z,102726.00
2023-02-08T07:13:24.817Z,102716.94
2023-02-08T07:17:27.815Z,102713.53
2023-02-08T07:21:30.803Z,102724.09
2023-02-08T07:25:33.823Z,102718.72
2023-02-08T07:29:38.904Z,102725.19
2023-02-08T07:33:42.480Z,102717.31
2023-02-08T07:37:45.463Z,102701.44
2023-02-08T07:41:49.048Z,102694.91
2023-02-08T07:45:53.426Z,102695.50
2023-02-08T07:49:56.448Z,102695.44
2023-02-08T07:53:59.452Z,102695.66
2023-02-08T07:58:02.427Z,102690.00
2023-02-08T08:02:06.843Z,102688.38
2023-02-08T08:06:09.973Z,102697.16
2023-02-08T08:10:13.055Z,102694.75
2023-02-08T08:14:16.118Z,102687.66
2023-02-08T08:18:20.610Z,102703.75
2023-02-08T08:22:23.700Z,102701.25
2023-02-08T08:26:26.833Z,102698.09
2023-02-08T08:30:29.997Z,102696.84
2023-02-08T08:34:34.447Z,102685.50
2023-02-08T08:38:38.809Z,102682.53
2023-02-08T08:42:41.877Z,102681.56
2023-02-08T08:46:44.944Z,102685.69
2023-02-08T08:50:51.500Z,102674.28
2023-02-08T08:54:54.578Z,102665.34
2023-02-08T08:58:57.656Z,102682.59
2023-02-08T09:03:00.768Z,102682.38
2023-02-08T09:07:05.436Z,102677.19
2023-02-08T09:11:11.395Z,102672.41
2023-02-08T09:15:14.447Z,102670.81
2023-02-08T09:19:17.706Z,102669.88
2023-02-08T09:23:22.337Z,102669.97
2023-02-08T09:27:25.404Z,102672.03
2023-02-08T09:31:30.635Z,102676.00
2023-02-08T09:35:33.765Z,102677.00
2023-02-08T09:39:38.215Z,102682.16
2023-02-08T09:43:50.292Z,102668.75
2023-02-08T09:48:01.000Z,102681.78
2023-02-08T09:52:08.192Z,102677.09
2023-02-08T09:56:16.666Z,102673.69
2023-02-08T10:00:28.706Z,102665.09
2023-02-08T10:04:38.973Z,102678.97
2023-02-08T10:08:44.495Z,102681.00
2023-02-08T10:12:56.660Z,102687.09
2023-02-08T10:17:11.308Z,102690.59
2023-02-08T10:21:35.492Z,102691.19
2023-02-08T10:25:48.215Z,102697.53
2023-02-08T10:30:08.757Z,102694.19
2023-02-08T10:34:21.460Z,102693.56
2023-02-08T10:38:37.197Z,102699.44
2023-02-08T10:42:53.169Z,102695.38
2023-02-08T10:47:08.903Z,102694.88
2023-02-08T10:51:16.794Z,102690.25
2023-02-08T10:55:21.915Z,102672.28
2023-02-08T10:59:28.840Z,102668.88
2023-02-08T11:03:34.255Z,102663.56
2023-02-08T11:07:37.872Z,102671.75
2023-02-08T11:11:42.987Z,102664.28
2023-02-08T11:15:48.970Z,102672.94
2023-02-08T11:19:54.160Z,102671.75
2023-02-08T11:23:58.916Z,102655.84
2023-02-08T11:28:02.387Z,102665.16
2023-02-08T11:32:16.505Z,102656.94
2023-02-08T11:36:21.174Z,102651.44
2023-02-08T11:40:27.564Z,102657.03
2023-02-08T11:44:33.630Z,102645.09
2023-02-08T11:48:44.082Z,102631.06
2023-02-08T11:52:55.964Z,102630.38
2023-02-08T11:57:03.907Z,102618.25
2023-02-08T12:01:18.060Z,102611.44
2023-02-08T12:05:30.648Z,102617.66
2023-02-08T12:10:14.951Z,102609.19
2023-02-08T12:14:40.212Z,102600.22
2023-02-08T12:18:57.988Z,102601.13
2023-02-08T12:23:15.295Z,102600.13
2023-02-08T12:27:36.336Z,102591.69
2023-02-08T12:31:56.840Z,102588.06
2023-02-08T12:36:21.398Z,102585.81
2023-02-08T12:40:52.762Z,102580.78
2023-02-08T12:45:35.761Z,102582.00
2023-02-08T12:49:53.527Z,102583.53
2023-02-08T12:54:00.302Z,102575.44
2023-02-08T12:58:14.308Z,102565.88
2023-02-08T13:02:23.267Z,102549.41
2023-02-08T13:06:32.310Z,102539.53
2023-02-08T13:10:40.534Z,102552.41
2023-02-08T13:14:48.336Z,102544.28
2023-02-08T13:18:56.331Z,102543.06
2023-02-08T13:23:04.178Z,102534.72
2023-02-08T13:27:08.701Z,102526.38
2023-02-08T13:31:15.787Z,102523.22
2023-02-08T13:35:25.143Z,102522.94
2023-02-08T13:39:35.444Z,102519.75
2023-02-08T13:43:43.148Z,102507.44
2023-02-08T13:47:50.008Z,102503.19
2023-02-08T13:51:55.370Z,102495.59
2023-02-08T13:56:01.204Z,102489.09
2023-02-08T14:00:24.177Z,102481.72
2023-02-08T14:04:37.470Z,102478.22
2023-02-08T14:08:55.190Z,102475.22
2023-02-08T14:13:02.572Z,102475.19
2023-02-08T14:17:21.731Z,102465.25
2023-02-08T14:21:33.303Z,102455.25
2023-02-08T14:25:45.005Z,102453.41
2023-02-08T14:29:58.116Z,102441.25
2023-02-08T14:34:01.436Z,102438.00
2023-02-08T14:38:37.294Z,102435.34
2023-02-08T14:42:58.157Z,102431.59
2023-02-08T14:47:01.357Z,102425.25
2023-02-08T14:51:20.094Z,102423.25
2023-02-08T14:55:27.717Z,102432.88
2023-02-08T14:59:35.741Z,102420.16
2023-02-08T15:03:42.530Z,102415.03
2023-02-08T15:07:50.632Z,102406.19
2023-02-08T15:12:01.030Z,102406.59
2023-02-08T15:16:11.680Z,102398.19
2023-02-08T15:20:21.007Z,102399.28
2023-02-08T15:24:29.275Z,102399.34
2023-02-08T15:28:35.269Z,102395.44
2023-02-08T15:32:41.775Z,102401.00
2023-02-08T15:36:50.101Z,102393.19
2023-02-08T15:41:07.624Z,102384.28
2023-02-08T15:45:24.504Z,102383.00
2023-02-08T15:49:32.535Z,102380.78
2023-02-08T15:53:36.939Z,102379.47
2023-02-08T15:57:44.983Z,102380.28
2023-02-08T16:01:49.127Z,102373.59
2023-02-08T16:05:56.917Z,102365.84
2023-02-08T16:10:00.359Z,102354.44
2023-02-08T16:14:05.466Z,102348.03
2023-02-08T16:18:50.992Z,102342.97
2023-02-08T16:23:00.594Z,102344.16
2023-02-08T16:27:06.148Z,102339.59
2023-02-08T16:31:09.376Z,102338.25
2023-02-08T16:35:14.197Z,102338.88
2023-02-08T16:39:39.153Z,102325.34
2023-02-08T16:43:44.721Z,102317.91
2023-02-08T16:47:51.305Z,102318.84
2023-02-08T16:51:57.903Z,102315.59
2023-02-08T16:56:02.377Z,102313.25
2023-02-08T17:00:15.412Z,102303.63
2023-02-08T17:04:18.509Z,102305.25
2023-02-08T17:08:22.753Z,102305.03
2023-02-08T17:12:27.164Z,102295.47
2023-02-08T17:16:31.982Z,102292.00
2023-02-08T17:20:36.738Z,102296.09
2023-02-08T17:24:39.751Z,102298.31
2023-02-08T17:28:44.625Z,102297.31
2023-02-08T17:32:47.894Z,102288.22
2023-02-08T17:36:50.933Z,102280.84
2023-02-08T17:40:53.937Z,102273.84
2023-02-08T17:44:58.959Z,102282.06
2023-02-08T17:49:03.635Z,102277.41
2023-02-08T17:53:06.638Z,102275.31
2023-02-08T17:57:11.243Z,102266.06
2023-02-08T18:01:18.337Z,102257.97
2023-02-08T18:05:24.014Z,102260.41
2023-02-08T18:09:27.262Z,102260.41
2023-02-08T18:13:30.267Z,102250.53
2023-02-08T18:17:35.033Z,102256.56
2023-02-08T18:21:38.232Z,102261.13
2023-02-08T18:25:42.756Z,102262.72
2023-02-08T18:29:45.945Z,102257.06
2023-02-08T18:33:51.472Z,102258.66
2023-02-08T18:37:54.643Z,102256.19
2023-02-08T18:41:57.657Z,102257.00
2023-02-08T18:46:02.452Z,102248.84
2023-02-08T18:50:11.569Z,102246.91
2023-02-08T18:54:17.870Z,102236.44
2023-02-08T18:58:20.882Z,102238.19
2023-02-08T19:02:26.420Z,102241.63
2023-02-08T19:06:32.570Z,102239.16
2023-02-08T19:10:37.379Z,102238.16
2023-02-08T19:14:40.424Z,102236.72
2023-02-08T19:18:43.437Z,102232.41
2023-02-08T19:22:47.842Z,102217.84
2023-02-08T19:26:51.151Z,102216.69
2023-02-08T19:31:03.797Z,102231.16
2023-02-08T19:35:07.330Z,102227.94
2023-02-08T19:39:15.633Z,102233.19
2023-02-08T19:43:18.709Z,102227.72
2023-02-08T19:47:43.399Z,102236.50
2023-02-08T19:51:49.558Z,102234.53
2023-02-08T19:55:57.915Z,102242.19
2023-02-08T20:00:02.888Z,102238.44
2023-02-08T20:04:15.645Z,102242.84
2023-02-08T20:08:20.583Z,102245.41
2023-02-08T20:12:24.994Z,102239.19
2023-02-08T20:16:31.680Z,102248.44
2023-02-08T20:20:35.794Z,102243.94
2023-02-08T20:24:39.066Z,102241.84
2023-02-08T20:28:45.471Z,102243.81
2023-02-08T20:32:48.626Z,102237.13
2023-02-08T20:37:06.424Z,102241.97
2023-02-08T20:41:13.285Z,102248.66
2023-02-08T20:45:17.865Z,102239.81
2023-02-08T20:49:25.340Z,102237.69
2023-02-08T20:53:28.408Z,102235.53
2023-02-08T20:57:31.651Z,102224.31
2023-02-08T21:01:38.688Z,102233.78
2023-02-08T21:05:41.761Z,102247.25
2023-02-08T21:09:45.668Z,102236.78
2023-02-08T21:13:49.211Z,102227.72
2023-02-08T21:17:53.743Z,102229.25
2023-02-08T21:21:59.198Z,102226.91
2023-02-08T21:26:03.995Z,102229.47
2023-02-08T21:30:07.620Z,102240.69
2023-02-08T21:34:13.514Z,102228.19
2023-02-08T21:38:16.710Z,102224.09
2023-02-08T21:42:19.853Z,102224.84
2023-02-08T21:46:24.885Z,102222.97
2023-02-08T21:50:46.978Z,102230.53
2023-02-08T21:54:53.586Z,102212.81
2023-02-08T21:58:56.822Z,102210.34
2023-02-08T22:02:59.981Z,102211.09
2023-02-08T22:07:05.630Z,102198.81
2023-02-08T22:11:09.041Z,102201.38
2023-02-08T22:15:13.955Z,102208.59
2023-02-08T22:19:17.319Z,102192.25
2023-02-08T22:23:21.893Z,102191.72
2023-02-08T22:27:25.041Z,102186.31
2023-02-08T22:31:28.215Z,102190.59
2023-02-08T22:35:31.330Z,102202.19
2023-02-08T22:39:35.941Z,102201.97
2023-02-08T22:43:39.036Z,102194.06
2023-02-08T22:47:42.120Z,102192.53
2023-02-08T22:51:45.120Z,102185.22
2023-02-08T22:55:56.129Z,102183.78
2023-02-08T22:59:59.200Z,102186.22
2023-02-08T23:04:02.205Z,102184.63
2023-02-08T23:08:05.275Z,102186.97
2023-02-08T23:12:09.756Z,102175.56
2023-02-08T23:16:14.415Z,102175.16
2023-02-08T23:20:17.832Z,102174.75
2023-02-08T23:24:20.862Z,102167.44
2023-02-08T23:28:25.280Z,102173.44
2023-02-08T23:32:28.297Z,102179.47
2023-02-08T23:36:31.415Z,102177.28
2023-02-08T23:40:34.436Z,102183.91
2023-02-08T23:44:38.858Z,102179.41
2023-02-08T23:48:42.028Z,102176.22
2023-02-08T23:52:45.009Z,102177.03
2023-02-08T23:56:47.999Z,102172.19
